sensor_id;sensor_type;location;lat;lon;timestamp;P1;durP1;ratioP1;P2;durP2;ratioP2
8260;SDS011;64115;50.170;8.242;2023-04-10T00:01:10;5.70;;;5.30;;
8260;SDS011;64115;50.170;8.242;2023-04-10T00:03:38;5.70;;;5.20;;
8260;SDS011;64115;50.170;8.242;2023-04-10T00:06:08;6.80;;;5.57;;
8260;SDS011;64115;50.170;8.242;2023-04-10T00:08:35;6.20;;;5.60;;
8260;SDS011;64115;50.170;8.242;2023-04-10T00:11:02;5.80;;;5.30;;
8260;SDS011;64115;50.170;8.242;2023-04-10T00:13:31;6.77;;;5.80;;
8260;SDS011;64115;50.170;8.242;2023-04-10T00:15:58;5.83;;;5.33;;
8260;SDS011;64115;50.170;8.242;2023-04-10T00:18:25;5.70;;;5.20;;
8260;SDS011;64115;50.170;8.242;2023-04-10T00:20:52;5.97;;;5.37;;
8260;SDS011;64115;50.170;8.242;2023-04-10T00:23:21;6.57;;;5.97;;
8260;SDS011;64115;50.170;8.242;2023-04-10T00:25:50;6.40;;;5.70;;
8260;SDS011;64115;50.170;8.242;2023-04-10T00:28:18;6.30;;;5.70;;
8260;SDS011;64115;50.170;8.242;2023-04-10T00:30:45;5.57;;;5.17;;
8260;SDS011;64115;50.170;8.242;2023-04-10T00:33:13;5.63;;;5.13;;
8260;SDS011;64115;50.170;8.242;2023-04-10T00:35:41;6.27;;;5.70;;
8260;SDS011;64115;50.170;8.242;2023-04-10T00:38:08;6.10;;;5.60;;
8260;SDS011;64115;50.170;8.242;2023-04-10T00:40:37;5.77;;;5.23;;
8260;SDS011;64115;50.170;8.242;2023-04-10T00:43:04;6.20;;;5.70;;
8260;SDS011;64115;50.170;8.242;2023-04-10T00:45:32;6.30;;;5.73;;
8260;SDS011;64115;50.170;8.242;2023-04-10T00:48:00;6.63;;;6.03;;
8260;SDS011;64115;50.170;8.242;2023-04-10T00:50:30;6.10;;;5.60;;
8260;SDS011;64115;50.170;8.242;2023-04-10T00:52:58;6.33;;;5.83;;
8260;SDS011;64115;50.170;8.242;2023-04-10T00:55:26;6.23;;;5.63;;
8260;SDS011;64115;50.170;8.242;2023-04-10T00:57:55;6.23;;;5.73;;
8260;SDS011;64115;50.170;8.242;2023-04-10T01:00:23;6.60;;;6.00;;
8260;SDS011;64115;50.170;8.242;2023-04-10T01:02:51;5.87;;;5.27;;
8260;SDS011;64115;50.170;8.242;2023-04-10T01:05:20;6.37;;;5.73;;
8260;SDS011;64115;50.170;8.242;2023-04-10T01:07:52;6.67;;;6.00;;
8260;SDS011;64115;50.170;8.242;2023-04-10T01:10:28;6.80;;;6.20;;
8260;SDS011;64115;50.170;8.242;2023-04-10T01:13:06;6.93;;;6.20;;
8260;SDS011;64115;50.170;8.242;2023-04-10T01:15:43;6.87;;;6.20;;
8260;SDS011;64115;50.170;8.242;2023-04-10T01:18:16;6.33;;;5.77;;
8260;SDS011;64115;50.170;8.242;2023-04-10T01:20:49;6.33;;;5.73;;
8260;SDS011;64115;50.170;8.242;2023-04-10T01:26:23;6.67;;;6.07;;
8260;SDS011;64115;50.170;8.242;2023-04-10T01:29:07;6.30;;;5.80;;
8260;SDS011;64115;50.170;8.242;2023-04-10T01:31:38;6.77;;;6.07;;
8260;SDS011;64115;50.170;8.242;2023-04-10T01:34:11;6.60;;;5.97;;
8260;SDS011;64115;50.170;8.242;2023-04-10T01:36:44;6.60;;;6.00;;
8260;SDS011;64115;50.170;8.242;2023-04-10T01:39:17;6.80;;;6.20;;
8260;SDS011;64115;50.170;8.242;2023-04-10T01:41:46;6.57;;;6.00;;
8260;SDS011;64115;50.170;8.242;2023-04-10T01:44:18;6.33;;;5.73;;
8260;SDS011;64115;50.170;8.242;2023-04-10T01:46:50;7.07;;;6.37;;
8260;SDS011;64115;50.170;8.242;2023-04-10T01:49:19;6.43;;;5.90;;
8260;SDS011;64115;50.170;8.242;2023-04-10T01:51:46;6.07;;;5.53;;
8260;SDS011;64115;50.170;8.242;2023-04-10T01:54:18;7.07;;;6.13;;
8260;SDS011;64115;50.170;8.242;2023-04-10T01:56:46;6.57;;;5.97;;
8260;SDS011;64115;50.170;8.242;2023-04-10T01:59:14;6.27;;;5.73;;
8260;SDS011;64115;50.170;8.242;2023-04-10T02:01:43;7.23;;;6.13;;
8260;SDS011;64115;50.170;8.242;2023-04-10T02:04:12;6.77;;;6.17;;
8260;SDS011;64115;50.170;8.242;2023-04-10T02:06:40;7.07;;;6.47;;
8260;SDS011;64115;50.170;8.242;2023-04-10T02:09:17;6.73;;;6.13;;
8260;SDS011;64115;50.170;8.242;2023-04-10T02:11:55;6.93;;;6.33;;
8260;SDS011;64115;50.170;8.242;2023-04-10T02:14:30;6.57;;;5.97;;
8260;SDS011;64115;50.170;8.242;2023-04-10T02:17:01;6.43;;;5.83;;
8260;SDS011;64115;50.170;8.242;2023-04-10T02:19:31;6.97;;;6.37;;
8260;SDS011;64115;50.170;8.242;2023-04-10T02:21:59;6.03;;;5.53;;
8260;SDS011;64115;50.170;8.242;2023-04-10T02:24:27;6.33;;;5.83;;
8260;SDS011;64115;50.170;8.242;2023-04-10T02:26:55;6.93;;;6.17;;
8260;SDS011;64115;50.170;8.242;2023-04-10T02:29:25;6.50;;;5.90;;
8260;SDS011;64115;50.170;8.242;2023-04-10T02:31:52;6.10;;;5.53;;
8260;SDS011;64115;50.170;8.242;2023-04-10T02:34:22;6.60;;;6.00;;
8260;SDS011;64115;50.170;8.242;2023-04-10T02:36:50;6.53;;;5.93;;
8260;SDS011;64115;50.170;8.242;2023-04-10T02:39:19;5.83;;;5.33;;
8260;SDS011;64115;50.170;8.242;2023-04-10T02:41:46;6.10;;;5.50;;
8260;SDS011;64115;50.170;8.242;2023-04-10T02:44:13;6.13;;;5.63;;
8260;SDS011;64115;50.170;8.242;2023-04-10T02:46:40;6.47;;;5.87;;
8260;SDS011;64115;50.170;8.242;2023-04-10T02:49:08;5.90;;;5.40;;
8260;SDS011;64115;50.170;8.242;2023-04-10T02:51:36;6.27;;;5.67;;
8260;SDS011;64115;50.170;8.242;2023-04-10T02:54:05;6.27;;;5.67;;
8260;SDS011;64115;50.170;8.242;2023-04-10T02:56:32;6.37;;;5.77;;
8260;SDS011;64115;50.170;8.242;2023-04-10T02:59:00;6.10;;;5.60;;
8260;SDS011;64115;50.170;8.242;2023-04-10T03:01:28;6.53;;;5.93;;
8260;SDS011;64115;50.170;8.242;2023-04-10T03:03:55;6.47;;;5.87;;
8260;SDS011;64115;50.170;8.242;2023-04-10T03:06:22;5.90;;;5.40;;
8260;SDS011;64115;50.170;8.242;2023-04-10T03:08:53;6.57;;;5.97;;
8260;SDS011;64115;50.170;8.242;2023-04-10T03:11:20;6.67;;;6.07;;
8260;SDS011;64115;50.170;8.242;2023-04-10T03:13:48;6.40;;;5.80;;
8260;SDS011;64115;50.170;8.242;2023-04-10T03:16:16;6.20;;;5.70;;
8260;SDS011;64115;50.170;8.242;2023-04-10T03:18:43;5.93;;;5.43;;
8260;SDS011;64115;50.170;8.242;2023-04-10T03:21:10;6.33;;;5.83;;
8260;SDS011;64115;50.170;8.242;2023-04-10T03:23:37;6.40;;;5.80;;
8260;SDS011;64115;50.170;8.242;2023-04-10T03:26:06;6.53;;;5.93;;
8260;SDS011;64115;50.170;8.242;2023-04-10T03:28:33;6.30;;;5.80;;
8260;SDS011;64115;50.170;8.242;2023-04-10T03:31:01;6.73;;;6.00;;
8260;SDS011;64115;50.170;8.242;2023-04-10T03:33:28;6.63;;;5.90;;
8260;SDS011;64115;50.170;8.242;2023-04-10T03:35:54;6.87;;;6.17;;
8260;SDS011;64115;50.170;8.242;2023-04-10T03:38:22;6.83;;;6.23;;
8260;SDS011;64115;50.170;8.242;2023-04-10T03:40:49;6.47;;;5.80;;
8260;SDS011;64115;50.170;8.242;2023-04-10T03:43:19;7.00;;;6.27;;
8260;SDS011;64115;50.170;8.242;2023-04-10T03:45:46;7.20;;;6.50;;
8260;SDS011;64115;50.170;8.242;2023-04-10T03:48:13;6.63;;;5.97;;
8260;SDS011;64115;50.170;8.242;2023-04-10T03:50:40;7.70;;;6.80;;
8260;SDS011;64115;50.170;8.242;2023-04-10T03:53:07;7.97;;;7.00;;
8260;SDS011;64115;50.170;8.242;2023-04-10T03:55:34;7.43;;;6.73;;
8260;SDS011;64115;50.170;8.242;2023-04-10T03:58:02;6.67;;;6.03;;
8260;SDS011;64115;50.170;8.242;2023-04-10T04:00:31;6.37;;;5.77;;
8260;SDS011;64115;50.170;8.242;2023-04-10T04:02:59;7.50;;;6.37;;
8260;SDS011;64115;50.170;8.242;2023-04-10T04:05:28;6.50;;;6.00;;
8260;SDS011;64115;50.170;8.242;2023-04-10T04:07:56;7.40;;;6.57;;
8260;SDS011;64115;50.170;8.242;2023-04-10T04:10:23;7.90;;;6.73;;
8260;SDS011;64115;50.170;8.242;2023-04-10T04:12:50;6.30;;;5.70;;
8260;SDS011;64115;50.170;8.242;2023-04-10T04:15:17;6.80;;;6.20;;
8260;SDS011;64115;50.170;8.242;2023-04-10T04:17:47;6.83;;;6.20;;
8260;SDS011;64115;50.170;8.242;2023-04-10T04:20:15;7.40;;;6.70;;
8260;SDS011;64115;50.170;8.242;2023-04-10T04:22:42;6.40;;;5.80;;
8260;SDS011;64115;50.170;8.242;2023-04-10T04:25:10;6.70;;;6.00;;
8260;SDS011;64115;50.170;8.242;2023-04-10T04:27:38;6.67;;;6.07;;
8260;SDS011;64115;50.170;8.242;2023-04-10T04:30:06;7.47;;;6.63;;
8260;SDS011;64115;50.170;8.242;2023-04-10T04:32:34;7.03;;;6.43;;
8260;SDS011;64115;50.170;8.242;2023-04-10T04:35:02;6.90;;;6.23;;
8260;SDS011;64115;50.170;8.242;2023-04-10T04:37:29;6.30;;;5.70;;
8260;SDS011;64115;50.170;8.242;2023-04-10T04:39:57;6.83;;;6.13;;
8260;SDS011;64115;50.170;8.242;2023-04-10T04:42:24;6.40;;;5.80;;
8260;SDS011;64115;50.170;8.242;2023-04-10T04:44:51;6.80;;;6.17;;
8260;SDS011;64115;50.170;8.242;2023-04-10T04:47:18;6.97;;;6.27;;
8260;SDS011;64115;50.170;8.242;2023-04-10T04:49:45;7.27;;;6.57;;
8260;SDS011;64115;50.170;8.242;2023-04-10T04:52:14;7.30;;;6.60;;
8260;SDS011;64115;50.170;8.242;2023-04-10T04:54:41;7.27;;;6.57;;
8260;SDS011;64115;50.170;8.242;2023-04-10T04:57:08;6.57;;;5.93;;
8260;SDS011;64115;50.170;8.242;2023-04-10T04:59:35;7.17;;;6.47;;
8260;SDS011;64115;50.170;8.242;2023-04-10T05:02:03;6.80;;;6.10;;
8260;SDS011;64115;50.170;8.242;2023-04-10T05:04:30;7.27;;;6.50;;
8260;SDS011;64115;50.170;8.242;2023-04-10T05:06:57;6.73;;;6.13;;
8260;SDS011;64115;50.170;8.242;2023-04-10T05:09:25;7.10;;;6.50;;
8260;SDS011;64115;50.170;8.242;2023-04-10T05:11:52;6.67;;;5.97;;
8260;SDS011;64115;50.170;8.242;2023-04-10T05:14:20;6.70;;;6.00;;
8260;SDS011;64115;50.170;8.242;2023-04-10T05:16:47;6.97;;;6.33;;
8260;SDS011;64115;50.170;8.242;2023-04-10T05:19:13;6.67;;;6.03;;
8260;SDS011;64115;50.170;8.242;2023-04-10T05:21:41;7.30;;;6.57;;
8260;SDS011;64115;50.170;8.242;2023-04-10T05:24:08;7.00;;;6.30;;
8260;SDS011;64115;50.170;8.242;2023-04-10T05:26:37;7.20;;;6.50;;
8260;SDS011;64115;50.170;8.242;2023-04-10T05:29:05;6.27;;;5.60;;
8260;SDS011;64115;50.170;8.242;2023-04-10T05:31:32;5.83;;;5.33;;
8260;SDS011;64115;50.170;8.242;2023-04-10T05:33:59;6.43;;;5.83;;
8260;SDS011;64115;50.170;8.242;2023-04-10T05:36:26;6.77;;;5.83;;
8260;SDS011;64115;50.170;8.242;2023-04-10T05:38:52;6.57;;;6.03;;
8260;SDS011;64115;50.170;8.242;2023-04-10T05:41:20;7.50;;;6.03;;
8260;SDS011;64115;50.170;8.242;2023-04-10T05:43:48;6.03;;;5.50;;
8260;SDS011;64115;50.170;8.242;2023-04-10T05:46:15;6.17;;;5.57;;
8260;SDS011;64115;50.170;8.242;2023-04-10T05:48:42;6.27;;;5.67;;
8260;SDS011;64115;50.170;8.242;2023-04-10T05:51:09;6.20;;;5.60;;
8260;SDS011;64115;50.170;8.242;2023-04-10T05:53:36;6.17;;;5.57;;
8260;SDS011;64115;50.170;8.242;2023-04-10T05:56:03;6.43;;;5.83;;
8260;SDS011;64115;50.170;8.242;2023-04-10T05:58:31;5.43;;;4.97;;
8260;SDS011;64115;50.170;8.242;2023-04-10T06:00:59;5.83;;;5.33;;
8260;SDS011;64115;50.170;8.242;2023-04-10T06:03:26;5.83;;;5.33;;
8260;SDS011;64115;50.170;8.242;2023-04-10T06:05:54;6.23;;;5.70;;
8260;SDS011;64115;50.170;8.242;2023-04-10T06:08:22;5.93;;;5.43;;
8260;SDS011;64115;50.170;8.242;2023-04-10T06:10:49;6.57;;;5.93;;
8260;SDS011;64115;50.170;8.242;2023-04-10T06:13:16;6.37;;;5.77;;
8260;SDS011;64115;50.170;8.242;2023-04-10T06:15:43;5.90;;;5.40;;
8260;SDS011;64115;50.170;8.242;2023-04-10T06:18:11;6.40;;;5.80;;
8260;SDS011;64115;50.170;8.242;2023-04-10T06:20:38;6.37;;;5.77;;
8260;SDS011;64115;50.170;8.242;2023-04-10T06:23:05;6.57;;;5.97;;
8260;SDS011;64115;50.170;8.242;2023-04-10T06:25:33;6.27;;;5.77;;
8260;SDS011;64115;50.170;8.242;2023-04-10T06:28:00;6.43;;;5.93;;
8260;SDS011;64115;50.170;8.242;2023-04-10T06:30:27;6.60;;;6.00;;
8260;SDS011;64115;50.170;8.242;2023-04-10T06:32:54;6.17;;;5.57;;
8260;SDS011;64115;50.170;8.242;2023-04-10T06:35:23;6.10;;;5.60;;
8260;SDS011;64115;50.170;8.242;2023-04-10T06:37:50;6.40;;;5.80;;
8260;SDS011;64115;50.170;8.242;2023-04-10T06:40:17;7.33;;;6.63;;
8260;SDS011;64115;50.170;8.242;2023-04-10T06:42:44;6.90;;;6.20;;
8260;SDS011;64115;50.170;8.242;2023-04-10T06:45:11;5.70;;;5.23;;
8260;SDS011;64115;50.170;8.242;2023-04-10T06:47:38;6.23;;;5.67;;
8260;SDS011;64115;50.170;8.242;2023-04-10T06:50:06;5.87;;;5.37;;
8260;SDS011;64115;50.170;8.242;2023-04-10T06:52:35;6.30;;;5.20;;
8260;SDS011;64115;50.170;8.242;2023-04-10T06:55:01;5.83;;;5.23;;
8260;SDS011;64115;50.170;8.242;2023-04-10T06:57:29;7.43;;;6.03;;
8260;SDS011;64115;50.170;8.242;2023-04-10T06:59:56;5.27;;;4.80;;
8260;SDS011;64115;50.170;8.242;2023-04-10T07:02:23;5.80;;;5.20;;
8260;SDS011;64115;50.170;8.242;2023-04-10T07:04:50;5.87;;;5.37;;
8260;SDS011;64115;50.170;8.242;2023-04-10T07:07:18;5.70;;;5.20;;
8260;SDS011;64115;50.170;8.242;2023-04-10T07:09:46;5.90;;;5.40;;
8260;SDS011;64115;50.170;8.242;2023-04-10T07:12:13;6.43;;;5.83;;
8260;SDS011;64115;50.170;8.242;2023-04-10T07:14:41;5.10;;;4.70;;
8260;SDS011;64115;50.170;8.242;2023-04-10T07:17:08;6.83;;;5.70;;
8260;SDS011;64115;50.170;8.242;2023-04-10T07:19:35;6.30;;;5.70;;
8260;SDS011;64115;50.170;8.242;2023-04-10T07:22:02;5.70;;;5.20;;
8260;SDS011;64115;50.170;8.242;2023-04-10T07:24:29;5.63;;;5.13;;
8260;SDS011;64115;50.170;8.242;2023-04-10T07:26:58;5.50;;;5.00;;
8260;SDS011;64115;50.170;8.242;2023-04-10T07:29:26;5.53;;;5.03;;
8260;SDS011;64115;50.170;8.242;2023-04-10T07:31:53;5.20;;;4.80;;
8260;SDS011;64115;50.170;8.242;2023-04-10T07:34:20;4.93;;;4.57;;
8260;SDS011;64115;50.170;8.242;2023-04-10T07:36:48;5.90;;;5.37;;
8260;SDS011;64115;50.170;8.242;2023-04-10T07:39:14;5.03;;;4.63;;
8260;SDS011;64115;50.170;8.242;2023-04-10T07:41:42;5.03;;;4.63;;
8260;SDS011;64115;50.170;8.242;2023-04-10T07:44:11;5.60;;;5.20;;
8260;SDS011;64115;50.170;8.242;2023-04-10T07:46:38;5.23;;;4.83;;
8260;SDS011;64115;50.170;8.242;2023-04-10T07:49:06;5.87;;;5.27;;
8260;SDS011;64115;50.170;8.242;2023-04-10T07:51:33;6.80;;;5.30;;
8260;SDS011;64115;50.170;8.242;2023-04-10T07:54:01;5.10;;;4.70;;
8260;SDS011;64115;50.170;8.242;2023-04-10T07:56:29;5.37;;;4.87;;
8260;SDS011;64115;50.170;8.242;2023-04-10T07:58:57;4.70;;;4.30;;
8260;SDS011;64115;50.170;8.242;2023-04-10T08:01:29;4.43;;;4.13;;
8260;SDS011;64115;50.170;8.242;2023-04-10T08:03:57;5.13;;;4.73;;
8260;SDS011;64115;50.170;8.242;2023-04-10T08:06:27;4.83;;;4.43;;
8260;SDS011;64115;50.170;8.242;2023-04-10T08:08:55;4.60;;;4.20;;
8260;SDS011;64115;50.170;8.242;2023-04-10T08:11:23;5.07;;;4.67;;
8260;SDS011;64115;50.170;8.242;2023-04-10T08:13:53;4.80;;;4.30;;
8260;SDS011;64115;50.170;8.242;2023-04-10T08:16:22;5.10;;;4.70;;
8260;SDS011;64115;50.170;8.242;2023-04-10T08:18:51;5.60;;;5.10;;
8260;SDS011;64115;50.170;8.242;2023-04-10T08:21:20;4.73;;;4.33;;
8260;SDS011;64115;50.170;8.242;2023-04-10T08:23:50;5.37;;;4.90;;
8260;SDS011;64115;50.170;8.242;2023-04-10T08:26:18;4.70;;;4.30;;
8260;SDS011;64115;50.170;8.242;2023-04-10T08:28:46;5.03;;;4.63;;
8260;SDS011;64115;50.170;8.242;2023-04-10T08:31:14;6.70;;;4.43;;
8260;SDS011;64115;50.170;8.242;2023-04-10T08:33:41;4.97;;;4.57;;
8260;SDS011;64115;50.170;8.242;2023-04-10T08:36:10;4.87;;;4.57;;
8260;SDS011;64115;50.170;8.242;2023-04-10T08:38:39;4.43;;;4.03;;
8260;SDS011;64115;50.170;8.242;2023-04-10T08:41:08;4.93;;;4.53;;
8260;SDS011;64115;50.170;8.242;2023-04-10T08:43:36;5.03;;;4.63;;
8260;SDS011;64115;50.170;8.242;2023-04-10T08:46:03;5.03;;;4.63;;
8260;SDS011;64115;50.170;8.242;2023-04-10T08:51:01;4.60;;;4.30;;
8260;SDS011;64115;50.170;8.242;2023-04-10T08:53:31;4.97;;;4.57;;
8260;SDS011;64115;50.170;8.242;2023-04-10T08:56:03;5.10;;;4.70;;
8260;SDS011;64115;50.170;8.242;2023-04-10T08:58:32;5.47;;;4.57;;
8260;SDS011;64115;50.170;8.242;2023-04-10T09:01:00;4.77;;;4.37;;
8260;SDS011;64115;50.170;8.242;2023-04-10T09:03:30;4.87;;;4.57;;
8260;SDS011;64115;50.170;8.242;2023-04-10T09:05:57;4.47;;;4.17;;
8260;SDS011;64115;50.170;8.242;2023-04-10T09:08:28;5.20;;;4.80;;
8260;SDS011;64115;50.170;8.242;2023-04-10T09:10:57;5.83;;;5.30;;
8260;SDS011;64115;50.170;8.242;2023-04-10T09:13:37;4.83;;;4.40;;
8260;SDS011;64115;50.170;8.242;2023-04-10T09:16:06;5.20;;;4.80;;
8260;SDS011;64115;50.170;8.242;2023-04-10T09:18:40;4.30;;;4.00;;
8260;SDS011;64115;50.170;8.242;2023-04-10T09:21:12;4.77;;;4.37;;
8260;SDS011;64115;50.170;8.242;2023-04-10T09:23:40;4.67;;;4.33;;
8260;SDS011;64115;50.170;8.242;2023-04-10T09:26:23;5.13;;;4.73;;
8260;SDS011;64115;50.170;8.242;2023-04-10T09:28:55;5.17;;;4.67;;
8260;SDS011;64115;50.170;8.242;2023-04-10T09:31:27;5.40;;;4.90;;
8260;SDS011;64115;50.170;8.242;2023-04-10T09:36:39;5.10;;;4.70;;
8260;SDS011;64115;50.170;8.242;2023-04-10T09:39:07;5.20;;;4.80;;
8260;SDS011;64115;50.170;8.242;2023-04-10T09:41:55;5.73;;;5.23;;
8260;SDS011;64115;50.170;8.242;2023-04-10T09:44:27;5.20;;;4.70;;
8260;SDS011;64115;50.170;8.242;2023-04-10T09:46:55;5.63;;;5.13;;
8260;SDS011;64115;50.170;8.242;2023-04-10T09:49:22;5.03;;;4.63;;
8260;SDS011;64115;50.170;8.242;2023-04-10T09:51:50;5.60;;;5.10;;
8260;SDS011;64115;50.170;8.242;2023-04-10T09:54:17;5.20;;;4.80;;
8260;SDS011;64115;50.170;8.242;2023-04-10T09:56:44;5.00;;;4.60;;
8260;SDS011;64115;50.170;8.242;2023-04-10T09:59:14;5.20;;;4.80;;
8260;SDS011;64115;50.170;8.242;2023-04-10T10:01:43;5.80;;;5.30;;
8260;SDS011;64115;50.170;8.242;2023-04-10T10:04:10;4.93;;;4.53;;
8260;SDS011;64115;50.170;8.242;2023-04-10T10:06:41;4.90;;;4.60;;
8260;SDS011;64115;50.170;8.242;2023-04-10T10:09:09;4.87;;;4.47;;
8260;SDS011;64115;50.170;8.242;2023-04-10T10:11:36;5.77;;;5.00;;
8260;SDS011;64115;50.170;8.242;2023-04-10T10:14:05;5.17;;;4.67;;
8260;SDS011;64115;50.170;8.242;2023-04-10T10:16:41;4.50;;;4.20;;
8260;SDS011;64115;50.170;8.242;2023-04-10T10:19:11;3.87;;;3.57;;
8260;SDS011;64115;50.170;8.242;2023-04-10T10:21:44;4.60;;;4.27;;
8260;SDS011;64115;50.170;8.242;2023-04-10T10:24:12;4.30;;;4.00;;
8260;SDS011;64115;50.170;8.242;2023-04-10T10:26:41;4.53;;;4.17;;
8260;SDS011;64115;50.170;8.242;2023-04-10T10:29:09;4.70;;;4.30;;
8260;SDS011;64115;50.170;8.242;2023-04-10T10:31:39;4.63;;;4.27;;
8260;SDS011;64115;50.170;8.242;2023-04-10T10:34:07;4.50;;;4.17;;
8260;SDS011;64115;50.170;8.242;2023-04-10T10:36:35;4.60;;;4.30;;
8260;SDS011;64115;50.170;8.242;2023-04-10T10:39:19;4.13;;;3.90;;
8260;SDS011;64115;50.170;8.242;2023-04-10T10:41:55;4.10;;;3.80;;
8260;SDS011;64115;50.170;8.242;2023-04-10T10:44:29;4.23;;;3.83;;
8260;SDS011;64115;50.170;8.242;2023-04-10T10:47:06;4.13;;;3.83;;
8260;SDS011;64115;50.170;8.242;2023-04-10T10:49:50;4.20;;;3.90;;
8260;SDS011;64115;50.170;8.242;2023-04-10T10:52:40;4.27;;;3.97;;
8260;SDS011;64115;50.170;8.242;2023-04-10T10:55:30;4.20;;;3.90;;
8260;SDS011;64115;50.170;8.242;2023-04-10T10:57:59;4.23;;;3.93;;
8260;SDS011;64115;50.170;8.242;2023-04-10T11:03:28;3.80;;;3.60;;
8260;SDS011;64115;50.170;8.242;2023-04-10T11:05:56;3.90;;;3.60;;
8260;SDS011;64115;50.170;8.242;2023-04-10T11:08:37;3.57;;;3.37;;
8260;SDS011;64115;50.170;8.242;2023-04-10T11:11:10;3.57;;;3.30;;
8260;SDS011;64115;50.170;8.242;2023-04-10T11:13:40;3.57;;;3.27;;
8260;SDS011;64115;50.170;8.242;2023-04-10T11:16:41;3.50;;;3.20;;
8260;SDS011;64115;50.170;8.242;2023-04-10T11:19:10;3.30;;;3.10;;
8260;SDS011;64115;50.170;8.242;2023-04-10T11:24:53;3.20;;;3.00;;
8260;SDS011;64115;50.170;8.242;2023-04-10T11:27:37;3.20;;;3.00;;
8260;SDS011;64115;50.170;8.242;2023-04-10T11:33:07;3.37;;;3.17;;
8260;SDS011;64115;50.170;8.242;2023-04-10T11:35:36;2.90;;;2.80;;
8260;SDS011;64115;50.170;8.242;2023-04-10T11:38:10;3.40;;;3.20;;
8260;SDS011;64115;50.170;8.242;2023-04-10T11:41:00;3.27;;;3.07;;
8260;SDS011;64115;50.170;8.242;2023-04-10T11:43:31;3.37;;;3.17;;
8260;SDS011;64115;50.170;8.242;2023-04-10T11:46:00;3.40;;;3.20;;
8260;SDS011;64115;50.170;8.242;2023-04-10T11:48:29;3.63;;;3.43;;
8260;SDS011;64115;50.170;8.242;2023-04-10T11:50:58;3.73;;;3.53;;
8260;SDS011;64115;50.170;8.242;2023-04-10T11:53:31;3.70;;;3.50;;
8260;SDS011;64115;50.170;8.242;2023-04-10T11:55:58;3.40;;;3.20;;
8260;SDS011;64115;50.170;8.242;2023-04-10T11:58:26;3.30;;;3.10;;
8260;SDS011;64115;50.170;8.242;2023-04-10T12:00:55;3.37;;;3.17;;
8260;SDS011;64115;50.170;8.242;2023-04-10T12:03:32;3.20;;;3.00;;
8260;SDS011;64115;50.170;8.242;2023-04-10T12:06:01;3.13;;;2.93;;
8260;SDS011;64115;50.170;8.242;2023-04-10T12:08:30;3.07;;;2.87;;
8260;SDS011;64115;50.170;8.242;2023-04-10T12:10:57;2.90;;;2.60;;
8260;SDS011;64115;50.170;8.242;2023-04-10T12:13:25;2.77;;;2.60;;
8260;SDS011;64115;50.170;8.242;2023-04-10T12:15:53;2.57;;;2.47;;
8260;SDS011;64115;50.170;8.242;2023-04-10T12:18:23;2.27;;;2.13;;
8260;SDS011;64115;50.170;8.242;2023-04-10T12:20:50;2.27;;;2.17;;
8260;SDS011;64115;50.170;8.242;2023-04-10T12:23:21;3.07;;;2.87;;
8260;SDS011;64115;50.170;8.242;2023-04-10T12:25:49;2.57;;;2.40;;
8260;SDS011;64115;50.170;8.242;2023-04-10T12:28:16;2.57;;;2.47;;
8260;SDS011;64115;50.170;8.242;2023-04-10T12:30:47;2.67;;;2.47;;
8260;SDS011;64115;50.170;8.242;2023-04-10T12:33:20;2.50;;;2.30;;
8260;SDS011;64115;50.170;8.242;2023-04-10T12:35:48;2.20;;;2.10;;
8260;SDS011;64115;50.170;8.242;2023-04-10T12:38:15;2.30;;;2.20;;
8260;SDS011;64115;50.170;8.242;2023-04-10T12:41:02;2.37;;;2.27;;
8260;SDS011;64115;50.170;8.242;2023-04-10T12:43:30;2.70;;;2.50;;
8260;SDS011;64115;50.170;8.242;2023-04-10T12:45:58;2.80;;;2.60;;
8260;SDS011;64115;50.170;8.242;2023-04-10T12:48:26;2.40;;;2.30;;
8260;SDS011;64115;50.170;8.242;2023-04-10T12:50:53;2.67;;;2.47;;
8260;SDS011;64115;50.170;8.242;2023-04-10T12:53:20;2.80;;;2.60;;
8260;SDS011;64115;50.170;8.242;2023-04-10T12:56:10;2.90;;;2.70;;
8260;SDS011;64115;50.170;8.242;2023-04-10T12:58:38;2.50;;;2.40;;
8260;SDS011;64115;50.170;8.242;2023-04-10T13:01:07;2.87;;;2.67;;
8260;SDS011;64115;50.170;8.242;2023-04-10T13:03:35;2.80;;;2.60;;
8260;SDS011;64115;50.170;8.242;2023-04-10T13:06:16;2.50;;;2.40;;
8260;SDS011;64115;50.170;8.242;2023-04-10T13:08:43;3.07;;;2.87;;
8260;SDS011;64115;50.170;8.242;2023-04-10T13:11:13;2.90;;;2.70;;
8260;SDS011;64115;50.170;8.242;2023-04-10T13:13:40;2.93;;;2.73;;
8260;SDS011;64115;50.170;8.242;2023-04-10T13:16:08;3.00;;;2.80;;
8260;SDS011;64115;50.170;8.242;2023-04-10T13:18:37;3.00;;;2.80;;
8260;SDS011;64115;50.170;8.242;2023-04-10T13:21:04;4.43;;;2.80;;
8260;SDS011;64115;50.170;8.242;2023-04-10T13:23:31;2.77;;;2.57;;
8260;SDS011;64115;50.170;8.242;2023-04-10T13:25:58;3.23;;;2.93;;
8260;SDS011;64115;50.170;8.242;2023-04-10T13:28:27;3.00;;;2.80;;
8260;SDS011;64115;50.170;8.242;2023-04-10T13:30:54;3.07;;;2.87;;
8260;SDS011;64115;50.170;8.242;2023-04-10T13:33:22;2.93;;;2.73;;
8260;SDS011;64115;50.170;8.242;2023-04-10T13:35:50;2.93;;;2.73;;
8260;SDS011;64115;50.170;8.242;2023-04-10T13:38:17;2.83;;;2.63;;
8260;SDS011;64115;50.170;8.242;2023-04-10T13:40:44;3.07;;;2.87;;
8260;SDS011;64115;50.170;8.242;2023-04-10T13:43:11;3.30;;;3.10;;
8260;SDS011;64115;50.170;8.242;2023-04-10T13:45:40;3.90;;;3.03;;
8260;SDS011;64115;50.170;8.242;2023-04-10T13:48:07;2.97;;;2.77;;
8260;SDS011;64115;50.170;8.242;2023-04-10T13:50:34;2.97;;;2.77;;
8260;SDS011;64115;50.170;8.242;2023-04-10T13:53:01;3.20;;;3.00;;
8260;SDS011;64115;50.170;8.242;2023-04-10T13:55:28;2.70;;;2.50;;
8260;SDS011;64115;50.170;8.242;2023-04-10T13:57:55;3.37;;;3.07;;
8260;SDS011;64115;50.170;8.242;2023-04-10T14:00:23;2.70;;;2.53;;
8260;SDS011;64115;50.170;8.242;2023-04-10T14:02:51;2.87;;;2.67;;
8260;SDS011;64115;50.170;8.242;2023-04-10T14:05:19;3.07;;;2.83;;
8260;SDS011;64115;50.170;8.242;2023-04-10T14:07:46;3.10;;;2.90;;
8260;SDS011;64115;50.170;8.242;2023-04-10T14:10:15;2.97;;;2.77;;
8260;SDS011;64115;50.170;8.242;2023-04-10T14:12:44;2.40;;;2.30;;
8260;SDS011;64115;50.170;8.242;2023-04-10T14:15:11;2.57;;;2.47;;
8260;SDS011;64115;50.170;8.242;2023-04-10T14:17:38;2.90;;;2.70;;
8260;SDS011;64115;50.170;8.242;2023-04-10T14:20:08;3.33;;;2.60;;
8260;SDS011;64115;50.170;8.242;2023-04-10T14:22:36;2.73;;;2.53;;
8260;SDS011;64115;50.170;8.242;2023-04-10T14:25:03;2.90;;;2.70;;
8260;SDS011;64115;50.170;8.242;2023-04-10T14:27:31;3.00;;;2.80;;
8260;SDS011;64115;50.170;8.242;2023-04-10T14:29:59;3.03;;;2.83;;
8260;SDS011;64115;50.170;8.242;2023-04-10T14:32:27;3.10;;;2.90;;
8260;SDS011;64115;50.170;8.242;2023-04-10T14:34:55;3.03;;;2.83;;
8260;SDS011;64115;50.170;8.242;2023-04-10T14:37:24;2.97;;;2.60;;
8260;SDS011;64115;50.170;8.242;2023-04-10T14:39:51;3.00;;;2.80;;
8260;SDS011;64115;50.170;8.242;2023-04-10T14:42:18;3.13;;;2.93;;
8260;SDS011;64115;50.170;8.242;2023-04-10T14:44:45;2.57;;;2.47;;
8260;SDS011;64115;50.170;8.242;2023-04-10T14:47:12;2.97;;;2.63;;
8260;SDS011;64115;50.170;8.242;2023-04-10T14:49:39;2.57;;;2.47;;
8260;SDS011;64115;50.170;8.242;2023-04-10T14:52:06;3.17;;;2.40;;
8260;SDS011;64115;50.170;8.242;2023-04-10T14:54:34;2.40;;;2.30;;
8260;SDS011;64115;50.170;8.242;2023-04-10T14:57:01;2.20;;;2.10;;
8260;SDS011;64115;50.170;8.242;2023-04-10T14:59:29;2.47;;;2.37;;
8260;SDS011;64115;50.170;8.242;2023-04-10T15:01:55;2.30;;;2.20;;
8260;SDS011;64115;50.170;8.242;2023-04-10T15:04:22;2.30;;;2.20;;
8260;SDS011;64115;50.170;8.242;2023-04-10T15:06:53;2.43;;;2.33;;
8260;SDS011;64115;50.170;8.242;2023-04-10T15:09:20;2.37;;;2.27;;
8260;SDS011;64115;50.170;8.242;2023-04-10T15:11:49;2.40;;;2.30;;
8260;SDS011;64115;50.170;8.242;2023-04-10T15:14:16;2.43;;;2.33;;
8260;SDS011;64115;50.170;8.242;2023-04-10T15:16:43;2.30;;;2.20;;
8260;SDS011;64115;50.170;8.242;2023-04-10T15:19:11;2.70;;;2.50;;
8260;SDS011;64115;50.170;8.242;2023-04-10T15:21:38;2.20;;;2.10;;
8260;SDS011;64115;50.170;8.242;2023-04-10T15:24:06;2.40;;;2.30;;
8260;SDS011;64115;50.170;8.242;2023-04-10T15:26:33;2.20;;;2.10;;
8260;SDS011;64115;50.170;8.242;2023-04-10T15:29:02;2.40;;;2.30;;